Airfield :
LOGIN :

Register | Disclaimer

   EN    FR    IT 

 










Legend :    VFR   Marginal VFR   IFR   Intensive IFR   Very Intensive IFR
Visi :
Ceiling :
>= 8 km
>= 3000ft
5 to 8 km
1000 to 3000 ft
1500m to 5 km
500 to 1000 ft
800 to 1500m
200 to 500 ft
< 800m
< 200 ft
Symbols :   Thunderstorms  Fog  Heavy snow  Heavy precipitations  Wind > 20 kt
SIGMETs :     Misc.  Thunderstorms  Icing  Turbulence  Mountain Waves  Volcanic Ashes







- Airport Elevation : 2001 ft
- IATA code : MAD


LEMD - Madrid

CURRENT METAR :
  • 291300Z 19009KT 9999 SCT060 25/09 Q1015 TEMPO 22008G22KT

EXPIRED METARs :
  • 291230Z 20010KT 160V240 9999 SCT060 24/10 Q1016 TEMPO 22008G22KT
  • 291200Z 23009G23KT 170V260 9999 BKN055 24/09 Q1016 NOSIG
  • 291130Z 22009G19KT 180V270 9999 BKN050 24/10 Q1016 NOSIG
  • 291100Z 20007KT 120V270 9999 BKN050 24/09 Q1016 TEMPO 22008G22KT
  • 291030Z 20008G19KT 130V280 9999 SCT050 BKN065 24/10 Q1016 NOSIG

TAF TAF LEMD
Valid from the 29 at 12:00 until the 30 at 18:00 UTC


291100Z 2912/3018 23007KT 9999 BKN050 TX28/3015Z TN16/3006Z
TEMPO 2912/2919 23010G22KT SCT035TCU
PROB30
TEMPO 2913/2918 SHRA FEW030CB SCT040TCU
BECMG 2920/2922 03007KT
PROB30
TEMPO 3017/3018 03014G24KT
No reported NOTAMs for that airfield.
3 SIGMETs reported for the Madrid FIR (LECM) :
 
Embedded thunderstorms
LECM SIGMET 8 VALID 291300/291500 LEVA
LECM MADRID FIR/UIR EMBD TS OBS AT 1300Z N OF LINE N4110 W00210 - N41 W001 TOP FL360 STNR NC=
Embedded thunderstorms
LECM SIGMET 7 VALID 291138/291400 LEVA
LECM MADRID FIR/UIR EMBD TS OBS AT 1138Z N OF LINE N4130 W00410 - N4130 W00220 TOP FL360 STNR NC=
Embedded thunderstorms
LECM SIGMET 6 VALID 291015/291300 LEVA
LECM MADRID FIR/UIR EMBD TS OBS AT 1015Z WI N4250 W00040 - N4120 W00130 - N4130 W00240 - N4340 W002 TOP FL360 MOV N NC=



MET'MAP, your aeronautical weather chart ! - Copyright ORBIFLY December 2007 - Disclaimer

ORBIFLY MET'MAP TEAM :

Programming & Development : Alexandra Zaïnal
Concept & Development : Baudouin d'Aumeries
Co-Development & Prog : Marc-Olivier Méhu
Technical & hardware support : Manuel Goepfert

Contact : metmap@orbifly.com




SOURCES & CREDITS :

   NOAA